createdAt,value
2023-01-11T00:00:15.106Z,77
2023-01-11T00:05:15.091Z,78
2023-01-11T00:10:15.088Z,79
2023-01-11T00:15:15.106Z,79
2023-01-11T00:20:15.090Z,80
2023-01-11T00:25:15.089Z,80
2023-01-11T00:30:15.100Z,81
2023-01-11T00:35:15.094Z,82
2023-01-11T00:40:15.092Z,82
2023-01-11T00:45:15.098Z,83
2023-01-11T00:50:15.089Z,83
2023-01-11T00:55:15.098Z,83
2023-01-11T01:00:15.092Z,83
2023-01-11T01:05:15.092Z,83
2023-01-11T01:10:15.112Z,84
2023-01-11T01:15:15.081Z,84
2023-01-11T01:20:15.107Z,84
2023-01-11T01:25:15.087Z,84
2023-01-11T01:30:15.095Z,84
2023-01-11T01:35:15.086Z,85
2023-01-11T01:40:15.092Z,85
2023-01-11T01:45:15.103Z,85
2023-01-11T01:50:15.104Z,85
2023-01-11T01:55:15.089Z,85
2023-01-11T02:00:15.085Z,85
2023-01-11T02:05:15.094Z,85
2023-01-11T02:10:15.106Z,85
2023-01-11T02:15:15.089Z,85
2023-01-11T02:20:15.100Z,85
2023-01-11T02:25:15.090Z,85
2023-01-11T02:30:15.088Z,85
2023-01-11T02:35:15.088Z,85
2023-01-11T02:40:15.087Z,85
2023-01-11T02:45:15.109Z,85
2023-01-11T02:50:15.090Z,85
2023-01-11T02:55:15.103Z,85
2023-01-11T03:00:15.094Z,85
2023-01-11T03:05:15.094Z,85
2023-01-11T03:10:15.086Z,85
2023-01-11T03:15:15.089Z,85
2023-01-11T03:20:15.091Z,85
2023-01-11T03:25:15.099Z,85
2023-01-11T03:30:15.109Z,84
2023-01-11T03:35:15.100Z,84
2023-01-11T03:40:15.097Z,84
2023-01-11T03:45:15.093Z,84
2023-01-11T03:50:15.091Z,84
2023-01-11T03:55:15.081Z,84
2023-01-11T04:00:15.092Z,84
2023-01-11T04:05:15.097Z,84
2023-01-11T04:10:15.108Z,84
2023-01-11T04:15:15.098Z,84
2023-01-11T04:20:15.092Z,84
2023-01-11T04:25:15.103Z,84
2023-01-11T04:30:15.120Z,83
2023-01-11T04:35:15.090Z,83
2023-01-11T04:40:15.139Z,83
2023-01-11T04:45:15.201Z,83
2023-01-11T04:50:15.193Z,83
2023-01-11T04:55:15.247Z,83
2023-01-11T05:00:15.330Z,83
2023-01-11T05:05:15.555Z,83
2023-01-11T05:10:15.389Z,83
2023-01-11T05:15:15.373Z,83
2023-01-11T05:20:15.090Z,83
2023-01-11T05:25:15.099Z,83
2023-01-11T05:30:15.081Z,83
2023-01-11T05:35:15.122Z,83
2023-01-11T05:40:15.103Z,83
2023-01-11T05:45:15.128Z,84
2023-01-11T05:50:15.089Z,84
2023-01-11T05:55:15.101Z,84
2023-01-11T06:00:15.111Z,85
2023-01-11T06:05:15.094Z,85
2023-01-11T06:10:15.091Z,85
2023-01-11T06:15:15.096Z,85
2023-01-11T06:20:15.111Z,85
2023-01-11T06:25:15.098Z,85
2023-01-11T06:30:15.109Z,86
2023-01-11T06:35:15.098Z,86
2023-01-11T06:40:15.105Z,86
2023-01-11T06:45:15.094Z,86
2023-01-11T06:50:15.088Z,86
2023-01-11T06:55:15.100Z,87
2023-01-11T07:00:15.092Z,87
2023-01-11T07:05:16.484Z,87
2023-01-11T07:10:15.104Z,87
2023-01-11T07:15:15.087Z,87
2023-01-11T07:20:15.096Z,87
2023-01-11T07:25:15.093Z,87
2023-01-11T07:30:15.098Z,87
2023-01-11T07:35:15.089Z,87
2023-01-11T07:40:15.080Z,86
2023-01-11T07:45:15.144Z,86
2023-01-11T07:50:15.087Z,86
2023-01-11T07:55:15.106Z,86
2023-01-11T08:00:15.097Z,86
2023-01-11T08:05:15.099Z,86
2023-01-11T08:10:15.080Z,86
2023-01-11T08:15:15.085Z,86
2023-01-11T08:20:15.083Z,86
2023-01-11T08:25:15.112Z,86
2023-01-11T08:30:15.104Z,85
2023-01-11T08:35:15.092Z,85
2023-01-11T08:40:15.102Z,85
2023-01-11T08:45:15.094Z,85
2023-01-11T08:50:15.082Z,85
2023-01-11T08:55:15.089Z,85
2023-01-11T09:00:15.113Z,85
2023-01-11T09:05:17.477Z,85
2023-01-11T09:10:15.088Z,85
2023-01-11T09:15:15.091Z,85
2023-01-11T09:20:15.093Z,85
2023-01-11T09:25:15.099Z,85
2023-01-11T09:30:15.091Z,85
2023-01-11T09:35:15.098Z,85
2023-01-11T09:40:15.108Z,86
2023-01-11T09:45:15.114Z,86
2023-01-11T09:50:15.116Z,86
2023-01-11T09:55:15.108Z,86
2023-01-11T10:00:15.102Z,86
2023-01-11T10:05:15.125Z,86
2023-01-11T10:18:24.811Z,86
2023-01-11T10:20:15.147Z,86
2023-01-11T10:25:15.112Z,86
2023-01-11T10:30:15.095Z,86
2023-01-11T10:35:15.100Z,86
2023-01-11T10:40:15.084Z,86
2023-01-11T10:45:15.089Z,86
2023-01-11T10:50:15.089Z,86
2023-01-11T10:55:15.107Z,86
2023-01-11T11:00:15.111Z,86
2023-01-11T11:05:15.085Z,86
2023-01-11T11:10:15.091Z,86
2023-01-11T11:15:15.096Z,86
2023-01-11T11:20:15.092Z,86
2023-01-11T11:25:15.086Z,86
2023-01-11T11:30:15.101Z,87
2023-01-11T11:35:15.090Z,87
2023-01-11T11:40:15.086Z,87
2023-01-11T11:45:15.088Z,87
2023-01-11T11:50:15.931Z,87
2023-01-11T11:55:15.088Z,87
2023-01-11T12:00:15.086Z,86
2023-01-11T12:05:15.203Z,86
2023-01-11T12:10:15.083Z,86
2023-01-11T12:15:15.098Z,87
2023-01-11T12:20:15.086Z,87
2023-01-11T12:25:15.191Z,87
2023-01-11T12:30:15.088Z,87
2023-01-11T12:35:15.098Z,87
2023-01-11T12:40:15.143Z,87
2023-01-11T12:45:15.103Z,87
2023-01-11T12:50:15.270Z,87
2023-01-11T12:55:15.100Z,87
2023-01-11T13:00:15.090Z,87
2023-01-11T13:05:15.103Z,86
2023-01-11T13:10:15.083Z,86
2023-01-11T13:15:15.089Z,86
2023-01-11T13:20:15.087Z,86
2023-01-11T13:25:15.086Z,86
2023-01-11T13:30:15.088Z,86
2023-01-11T13:35:15.084Z,86
2023-01-11T13:40:15.095Z,86
2023-01-11T13:45:15.095Z,86
2023-01-11T13:50:15.087Z,86
2023-01-11T13:55:24.793Z,85
2023-01-11T14:00:15.105Z,85
2023-01-11T14:05:15.088Z,85
2023-01-11T14:10:15.095Z,85
2023-01-11T14:15:15.087Z,85
2023-01-11T14:20:15.087Z,85
2023-01-11T14:25:15.103Z,86
2023-01-11T14:30:15.101Z,86
2023-01-11T14:35:15.079Z,86
2023-01-11T14:40:15.083Z,86
2023-01-11T14:45:15.089Z,85
2023-01-11T14:50:15.084Z,85
2023-01-11T14:55:15.087Z,85
2023-01-11T15:00:15.085Z,85
2023-01-11T15:05:15.087Z,85
2023-01-11T15:10:15.110Z,84
2023-01-11T15:15:15.085Z,84
2023-01-11T15:20:15.081Z,83
2023-01-11T15:25:15.087Z,83
2023-01-11T15:30:15.084Z,83
2023-01-11T15:35:15.082Z,83
2023-01-11T15:40:15.096Z,83
2023-01-11T15:45:15.094Z,83
2023-01-11T15:50:15.090Z,83
2023-01-11T15:55:15.094Z,83
2023-01-11T16:00:15.098Z,83
2023-01-11T16:05:15.106Z,83
2023-01-11T16:10:15.105Z,83
2023-01-11T16:15:15.084Z,83
2023-01-11T16:20:15.089Z,83
2023-01-11T16:25:15.096Z,83
2023-01-11T16:30:15.100Z,83
2023-01-11T16:35:15.092Z,84
2023-01-11T16:40:15.095Z,84
2023-01-11T16:45:15.087Z,84
2023-01-11T16:50:15.087Z,84
2023-01-11T16:55:15.108Z,84
2023-01-11T17:00:15.092Z,84
2023-01-11T17:05:15.098Z,85
2023-01-11T17:10:15.099Z,85
2023-01-11T17:15:15.093Z,85
2023-01-11T17:20:15.095Z,85
2023-01-11T17:25:15.090Z,85
2023-01-11T17:30:15.095Z,85
2023-01-11T17:35:15.093Z,85
2023-01-11T17:40:15.085Z,84
2023-01-11T17:45:15.107Z,84
2023-01-11T17:50:15.095Z,83
2023-01-11T17:55:15.097Z,83
2023-01-11T18:00:15.108Z,82
2023-01-11T18:05:15.106Z,81
2023-01-11T18:10:15.094Z,80
2023-01-11T18:15:15.096Z,80
2023-01-11T18:20:15.100Z,80
2023-01-11T18:25:15.098Z,80
2023-01-11T18:30:15.093Z,80
2023-01-11T18:35:17.011Z,80
2023-01-11T18:40:15.089Z,80
2023-01-11T18:45:15.094Z,81
2023-01-11T18:50:15.098Z,81
2023-01-11T18:55:15.111Z,82
2023-01-11T19:00:15.093Z,82
2023-01-11T19:05:15.114Z,82
2023-01-11T19:10:15.086Z,83
2023-01-11T19:15:15.092Z,83
2023-01-11T19:20:15.121Z,83
2023-01-11T19:25:15.091Z,83
2023-01-11T19:30:15.094Z,84
2023-01-11T19:35:15.096Z,83
2023-01-11T19:40:15.091Z,83
2023-01-11T19:45:15.101Z,83
2023-01-11T19:50:15.102Z,83
2023-01-11T19:55:15.100Z,83
2023-01-11T20:00:15.091Z,83
2023-01-11T20:05:15.088Z,82
2023-01-11T20:10:15.091Z,82
2023-01-11T20:15:15.099Z,82
2023-01-11T20:20:15.333Z,82
2023-01-11T20:25:15.090Z,82
2023-01-11T20:30:15.084Z,82
2023-01-11T20:35:15.097Z,81
2023-01-11T20:40:15.091Z,81
2023-01-11T20:45:15.103Z,81
2023-01-11T20:50:15.089Z,80
2023-01-11T20:55:15.094Z,79
2023-01-11T21:00:15.137Z,79
2023-01-11T21:05:15.099Z,79
2023-01-11T21:10:15.098Z,79
2023-01-11T21:15:15.105Z,79
2023-01-11T21:20:15.101Z,79
2023-01-11T21:25:15.094Z,79
2023-01-11T21:30:15.088Z,79
2023-01-11T21:35:15.099Z,79
2023-01-11T21:40:15.099Z,79
2023-01-11T21:45:15.092Z,79
2023-01-11T21:50:15.108Z,79
2023-01-11T21:55:15.109Z,79
2023-01-11T22:00:15.089Z,79
2023-01-11T22:05:15.100Z,80
2023-01-11T22:10:15.104Z,80
2023-01-11T22:15:15.100Z,80
2023-01-11T22:20:15.104Z,80
2023-01-11T22:25:15.092Z,80
2023-01-11T22:30:15.095Z,80
2023-01-11T22:35:15.098Z,80
2023-01-11T22:40:15.096Z,80
2023-01-11T22:45:15.099Z,80
2023-01-11T22:50:15.087Z,81
2023-01-11T22:55:15.099Z,81
2023-01-11T23:00:15.093Z,81
2023-01-11T23:05:15.105Z,81
2023-01-11T23:10:15.103Z,81
2023-01-11T23:15:15.089Z,81
2023-01-11T23:20:15.105Z,81
2023-01-11T23:25:15.106Z,81
2023-01-11T23:30:15.095Z,81
2023-01-11T23:35:15.096Z,81
2023-01-11T23:40:15.093Z,81
2023-01-11T23:45:15.095Z,82
2023-01-11T23:50:15.087Z,82
2023-01-11T23:55:15.112Z,82
